Flight Track Log - Related Links

Times and Time Zones

All times are in EDT time to prevent confusion due to time zone crossing. See the OPT452 flight status page for this flight to view local times or setup timezone preferences in your user account.


Time Position Orientation Groundspeed Altitude Reporting Facility
EDT Latitude Longitude Course Direction KTS MPH feet Rate Location/Type
Sat 09:10:20 AM 32.7042 -80.0364 265° West 170 196 1,600  Level Jacksonville Center
Sat 09:11:20 AM 32.6994 -80.0981 265° West 191 220 4,800 3,400 Climbing Jacksonville Center
Sat 09:12:20 AM 32.7006 -80.1550 271° West 191 220 8,400 3,450 Climbing Jacksonville Center
Sat 09:13:20 AM 32.7019 -80.2167 272° West 191 220 11,700 2,400 Climbing Jacksonville Center
Sat 09:14:20 AM 32.6714 -80.2494 222° Southwest 175 201 13,200 1,700 Climbing Jacksonville Center
Sat 09:15:20 AM 32.6117 -80.2931 212° Southwest 195 224 15,100 2,100 Climbing Jacksonville Center
Sat 09:16:20 AM 32.5478 -80.3394 211° Southwest 243 280 17,400 2,150 Climbing Jacksonville Center
Sat 09:17:20 AM 32.4800 -80.3856 210° Southwest 273 314 19,400 2,000 Climbing Jacksonville Center
Sat 09:18:20 AM 32.4119 -80.4317 210° Southwest 285 328 21,400 1,800 Climbing Jacksonville Center
Sat 09:19:20 AM 32.3397 -80.4806 210° Southwest 291 335 23,000 800 Climbing Jacksonville Center
Sat 09:20:20 AM 32.2617 -80.5367 211° Southwest 303 349 23,000  Level Jacksonville Center
Sat 09:21:20 AM 32.1769 -80.5953 210° Southwest 335 386 23,000 500 Level Jacksonville Center
Sat 09:22:20 AM 32.0967 -80.6511 211° Southwest 345 397 24,000 500 Climbing Jacksonville Center
Sat 09:23:20 AM 32.0058 -80.7147 211° Southwest 352 405 24,000  Level Jacksonville Center
Sat 09:24:20 AM 31.9192 -80.7731 210° Southwest 358 412 24,000  Level Jacksonville Center
Sat 09:25:20 AM 31.8450 -80.8261 211° Southwest 353 406 24,000  Level Jacksonville Center
Sat 09:26:20 AM 31.7561 -80.8842 209° Southwest 348 400 24,000  Level Jacksonville Center
Sat 09:27:20 AM 31.6794 -80.9322 208° Southwest 320 368 24,000  Level Jacksonville Center
Sat 09:28:20 AM 31.6003 -80.9289 178° South 309 356 24,000  Level Jacksonville Center
Sat 09:29:20 AM 31.5033 -80.8847 159° South 329 379 24,000  Level Jacksonville Center
Sat 09:30:20 AM 31.4272 -80.8231 145° Southeast 354 407 24,000 650 Level Jacksonville Center
Sat 09:31:20 AM 31.3300 -80.7497 147° Southeast 376 433 25,300 1,500 Climbing Jacksonville Center
Sat 09:32:20 AM 31.2433 -80.6861 148° Southeast 376 433 27,000 1,150 Climbing Jacksonville Center
Sat 09:33:20 AM 31.1461 -80.6278 153° Southeast 371 427 27,600 1,150 Climbing Jacksonville Center
Sat 09:34:20 AM 31.0472 -80.5792 157° South 380 437 29,300 1,500 Climbing Jacksonville Center
Sat 09:35:20 AM 30.9544 -80.5331 157° South 387 445 30,600 1,250 Climbing Jacksonville Center
Sat 09:36:20 AM 30.8514 -80.4922 161° South 380 437 31,800 1,150 Climbing Jacksonville Center
Sat 09:37:20 AM 30.7489 -80.4825 175° South 374 430 32,900 1,100 Climbing Jacksonville Center
Sat 09:38:20 AM 30.6464 -80.4708 174° South 374 430 34,000 550 Climbing Jacksonville Center
Sat 09:39:20 AM 30.5378 -80.4592 175° South 382 440 34,000  Level Jacksonville Center
Sat 09:40:20 AM 30.4247 -80.4475 175° South 401 461 34,000  Level Jacksonville Center
Sat 09:41:20 AM 30.3117 -80.4383 176° South 411 473 34,000  Level Jacksonville Center
Sat 09:42:20 AM 30.2050 -80.4242 173° South 405 466 34,000  Level Jacksonville Center
Sat 09:43:20 AM 30.0964 -80.4150 176° South 400 460 34,000  Level Jacksonville Center
Sat 09:44:20 AM 29.9897 -80.4033 175° South 400 460 34,000  Level Jacksonville Center
Sat 09:45:20 AM 29.8808 -80.3942 176° South 395 455 34,000  Level Jacksonville Center
Sat 09:46:20 AM 29.7764 -80.3850 176° South 390 449 34,000 -250 Level Jacksonville Center
Sat 09:47:20 AM 29.6675 -80.3733 175° South 390 449 33,500 -700 Descending Jacksonville Center
Sat 09:48:20 AM 29.5589 -80.3642 176° South 390 449 32,600 -750 Descending Jacksonville Center
Sat 09:49:20 AM 29.4731 -80.3544 174° South 390 449 32,000 -700 Descending Jacksonville Center
Sat 09:50:20 AM 29.3517 -80.3386 174° South 390 449 31,200 -850 Descending Jacksonville Center
Sat 09:51:20 AM 29.2431 -80.3294 176° South 396 456 30,300 -913 Descending Jacksonville Center
Sat 09:51:52 AM 29.1706 -80.3239 176° South 410 472 29,800 -848 Descending Miami Center
Sat 09:52:52 AM 29.0542 -80.3131 175° South 423 487 29,000 -1,600 Descending Miami Center
Sat 09:53:52 AM 28.9397 -80.3000 174° South 423 487 26,600 -2,550 Descending Miami Center
Sat 09:54:52 AM 28.8231 -80.2894 175° South 428 493 23,900 -2,600 Descending Miami Center
Sat 09:55:52 AM 28.7169 -80.2767 174° South 428 493 21,400 -2,450 Descending Miami Center
Sat 09:56:52 AM 28.6086 -80.2686 176° South 416 479 19,000 -2,550 Descending Miami Center
Sat 09:57:52 AM 28.4858 -80.2531 174° South 405 466 16,300 -2,600 Descending Miami Center
Sat 09:58:52 AM 28.3839 -80.2428 175° South 394 453 13,800 -2,550 Descending Miami Center
Sat 09:59:52 AM 28.2881 -80.2328 175° South 363 418 11,200 -1,800 Descending Miami Center
Sat 10:00:52 AM 28.1922 -80.2253 176° South 353 406 10,200 -850 Descending Miami Center
Sat 10:01:52 AM 28.1092 -80.2158 174° South 335 386 9,500 -1,100 Descending Miami Center
Sat 10:02:52 AM 28.0383 -80.2089 175° South 292 336 8,000 -1,600 Descending Miami Center
Sat 10:03:52 AM 27.9633 -80.2019 175° South 270 311 6,300 -1,050 Descending Miami Center
Sat 10:04:52 AM 27.8925 -80.1953 175° South 264 304 5,900 -150 Descending Miami Center
Sat 10:05:52 AM 27.8319 -80.1889 175° South 250 288 6,000 50 Climbing Miami Center
Sat 10:06:52 AM 27.7569 -80.1819 175° South 259 298 6,000  Level Miami Center
Sat 10:07:52 AM 27.6717 -80.1747 176° South 274 315 6,000 -50 Level Miami Center
Sat 10:08:52 AM 27.5967 -80.1656 174° South 274 315 5,900 -600 Descending Miami Center
Sat 10:09:52 AM 27.5258 -80.1589 175° South 265 305 4,800 -950 Descending Miami Center
Sat 10:10:52 AM 27.4694 -80.1547 176° South 243 280 4,000 -400 Descending Miami Center
Sat 10:11:52 AM 27.4114 -80.1486 175° South 225 259 4,000 -200 Level Miami Center
Sat 10:12:52 AM 27.3447 -80.1419 175° South 219 252 3,600 -850 Descending Miami Center
Sat 10:13:52 AM 27.2883 -80.1428 181° South 214 246 2,300 -1,050 Descending Miami Center
Sat 10:14:52 AM 27.2400 -80.1553 193° South 214 246 1,500 -550 Descending Miami Center
Sat 10:15:52 AM 27.1917 -80.1678 193° South 192 221 1,200 -350 Descending Miami Center
Sat 10:16:52 AM 27.1703 -80.1883 221° Southwest 135 155 800 1,400 Descending Miami Center
Sat 10:17:52 AM 27.1178 -80.2008 192° South 135 155 4,000 1,600 Climbing Miami Center
Sat 10:18:52 AM 27.0819 -80.2183 204° Southwest 135 155 4,000  Level Miami Center
Sat 10:20:00 AM 27.1817 -80.2213 358° North  Level Estimated

Login

Don't have an account? Register now (free) for customized features, flight alerts, and more!